createdAt,value
2019-05-28T00:03:04.448Z,51.70
2019-05-28T00:08:08.773Z,51.80
2019-05-28T00:13:12.634Z,51.70
2019-05-28T00:18:16.568Z,51.80
2019-05-28T00:23:21.036Z,51.80
2019-05-28T00:28:25.257Z,52.00
2019-05-28T00:33:29.169Z,51.80
2019-05-28T00:38:33.319Z,51.80
2019-05-28T00:43:37.690Z,52.20
2019-05-28T00:48:41.554Z,52.80
2019-05-28T00:53:46.060Z,51.80
2019-05-28T00:58:50.952Z,52.10
2019-05-28T01:03:55.039Z,52.10
2019-05-28T01:08:59.486Z,52.10
2019-05-28T01:14:03.435Z,52.20
2019-05-28T01:19:07.381Z,52.20
2019-05-28T01:24:12.294Z,52.00
2019-05-28T01:29:16.767Z,52.20
2019-05-28T01:34:20.949Z,52.70
2019-05-28T01:39:25.233Z,52.30
2019-05-28T01:44:29.162Z,52.10
2019-05-28T01:49:33.391Z,52.20
2019-05-28T01:54:37.383Z,52.00
2019-05-28T01:59:41.254Z,52.00
2019-05-28T02:04:45.251Z,52.10
2019-05-28T02:09:49.265Z,52.30
2019-05-28T02:14:53.190Z,52.30
2019-05-28T02:19:57.424Z,52.30
2019-05-28T02:25:01.375Z,52.00
2019-05-28T02:30:07.097Z,52.10
2019-05-28T02:35:12.612Z,52.30
2019-05-28T02:40:17.270Z,52.00
2019-05-28T02:45:21.651Z,52.20
2019-05-28T02:50:57.131Z,52.20
2019-05-28T02:56:01.689Z,52.10
2019-05-28T03:01:08.320Z,52.30
2019-05-28T03:06:14.139Z,52.50
2019-05-28T03:11:18.738Z,52.30
2019-05-28T03:16:26.119Z,52.30
2019-05-28T03:21:32.071Z,52.80
2019-05-28T03:26:36.079Z,52.20
2019-05-28T03:31:40.359Z,52.60
2019-05-28T03:36:45.580Z,52.50
2019-05-28T03:41:49.854Z,52.60
2019-05-28T03:46:53.854Z,52.40
2019-05-28T03:51:57.775Z,52.60
2019-05-28T03:57:01.723Z,53.20
2019-05-28T04:02:20.682Z,52.90
2019-05-28T04:07:11.420Z,52.60
2019-05-28T04:12:15.355Z,52.70
2019-05-28T04:17:19.671Z,52.70
2019-05-28T04:22:23.875Z,52.90
2019-05-28T04:27:27.739Z,52.80
2019-05-28T04:32:40.509Z,52.60
2019-05-28T04:37:37.550Z,52.50
2019-05-28T04:42:41.862Z,52.70
2019-05-28T04:47:46.082Z,52.90
2019-05-28T04:52:50.108Z,52.80
2019-05-28T04:57:54.342Z,53.00
2019-05-28T05:03:00.493Z,52.90
2019-05-28T05:08:04.145Z,52.70
2019-05-28T05:13:08.146Z,52.70
2019-05-28T05:18:12.146Z,53.00
2019-05-28T05:23:16.009Z,52.90
2019-05-28T05:28:20.655Z,53.20
2019-05-28T05:33:24.938Z,53.00
2019-05-28T05:38:28.819Z,53.00
2019-05-28T05:43:32.863Z,53.40
2019-05-28T05:48:36.879Z,53.20
2019-05-28T05:53:41.038Z,54.00
2019-05-28T05:58:44.994Z,53.30
2019-05-28T06:03:49.165Z,53.50
2019-05-28T06:08:53.099Z,53.60
2019-05-28T06:13:57.057Z,53.80
2019-05-28T06:19:00.979Z,53.70
2019-05-28T06:24:05.484Z,54.10
2019-05-28T06:29:09.482Z,54.00
2019-05-28T06:34:13.361Z,54.00
2019-05-28T06:39:17.367Z,54.60
2019-05-28T06:44:21.717Z,54.10
2019-05-28T06:49:25.931Z,54.20
2019-05-28T06:54:29.858Z,54.20
2019-05-28T06:59:33.862Z,54.30
2019-05-28T07:04:38.426Z,54.20
2019-05-28T07:09:42.367Z,54.30
2019-05-28T07:14:47.153Z,54.30
2019-05-28T07:19:51.530Z,54.50
2019-05-28T07:24:55.483Z,54.20
2019-05-28T07:29:59.642Z,54.10
2019-05-28T07:35:03.808Z,54.10
2019-05-28T07:40:08.387Z,54.00
2019-05-28T07:45:12.865Z,53.80
2019-05-28T07:50:17.271Z,54.00
2019-05-28T07:55:21.155Z,53.80
2019-05-28T08:00:36.954Z,54.00
2019-05-28T08:05:41.354Z,53.40
2019-05-28T08:10:45.595Z,53.80
2019-05-28T08:15:49.552Z,53.70
2019-05-28T08:20:53.415Z,53.40
2019-05-28T08:25:57.636Z,53.10
2019-05-28T08:31:14.834Z,53.10
2019-05-28T08:36:07.425Z,52.70
2019-05-28T08:41:11.447Z,52.50
2019-05-28T08:46:15.451Z,52.40
2019-05-28T08:51:19.622Z,52.10
2019-05-28T08:56:23.510Z,51.60
2019-05-28T09:01:28.814Z,51.60
2019-05-28T09:06:33.143Z,51.60
2019-05-28T09:11:37.695Z,51.00
2019-05-28T09:16:41.923Z,51.20
2019-05-28T09:21:46.159Z,51.00
2019-05-28T09:26:50.401Z,51.10
2019-05-28T09:31:54.342Z,51.00
2019-05-28T09:36:58.542Z,50.90
2019-05-28T09:42:02.679Z,51.20
2019-05-28T09:47:06.908Z,50.90
2019-05-28T09:52:10.968Z,51.20
2019-05-28T09:57:15.307Z,50.70
2019-05-28T10:02:19.640Z,50.70
2019-05-28T10:07:23.582Z,50.80
2019-05-28T10:12:27.573Z,50.80
2019-05-28T10:17:31.527Z,51.10
2019-05-28T10:22:35.571Z,51.20
2019-05-28T10:27:39.539Z,51.10
2019-05-28T10:32:43.593Z,51.00
2019-05-28T10:37:47.548Z,51.20
2019-05-28T10:42:51.739Z,51.20
2019-05-28T10:47:56.119Z,51.50
2019-05-28T10:53:00.532Z,51.40
2019-05-28T10:58:04.750Z,51.00
2019-05-28T11:03:09.387Z,50.80
2019-05-28T11:08:13.526Z,51.10
2019-05-28T11:13:18.166Z,50.80
2019-05-28T11:18:22.534Z,51.00
2019-05-28T11:23:26.840Z,51.00
2019-05-28T11:28:30.967Z,51.00
2019-05-28T11:33:35.312Z,50.90
2019-05-28T11:38:39.318Z,51.10
2019-05-28T11:43:43.390Z,50.80
2019-05-28T11:48:47.349Z,51.10
2019-05-28T11:53:51.376Z,50.70
2019-05-28T11:58:55.395Z,50.80
2019-05-28T12:03:59.750Z,51.00
2019-05-28T12:09:05.286Z,50.80
2019-05-28T12:14:09.714Z,51.70
2019-05-28T12:19:14.147Z,51.20
2019-05-28T12:24:18.400Z,51.20
2019-05-28T12:29:25.518Z,51.30
2019-05-28T12:34:29.382Z,51.50
2019-05-28T12:39:33.446Z,51.30
2019-05-28T12:44:42.386Z,51.80
2019-05-28T12:49:43.070Z,52.00
2019-05-28T12:54:47.078Z,52.50
2019-05-28T12:59:50.938Z,52.70
2019-05-28T13:04:55.297Z,53.20
2019-05-28T13:09:59.635Z,53.30
2019-05-28T13:15:04.488Z,53.00
2019-05-28T13:20:09.042Z,52.80
2019-05-28T13:25:13.176Z,52.90
2019-05-28T13:30:19.503Z,53.20
2019-05-28T13:35:23.559Z,53.20
2019-05-28T13:40:28.108Z,52.90
2019-05-28T13:45:32.045Z,52.70
2019-05-28T13:50:35.984Z,52.50
2019-05-28T13:55:39.927Z,52.60
2019-05-28T14:00:44.035Z,52.70
2019-05-28T14:05:47.969Z,53.20
2019-05-28T14:10:51.851Z,53.80
2019-05-28T14:15:56.255Z,53.30
2019-05-28T14:21:00.498Z,54.00
2019-05-28T14:26:04.886Z,54.40
2019-05-28T14:31:08.844Z,54.40
2019-05-28T14:36:12.807Z,53.70
2019-05-28T14:41:16.957Z,55.20
2019-05-28T14:46:20.839Z,55.60
2019-05-28T14:51:25.124Z,55.50
2019-05-28T14:56:29.036Z,55.40
2019-05-28T15:01:32.900Z,55.60
2019-05-28T15:06:37.107Z,55.60
2019-05-28T15:11:41.290Z,55.80
2019-05-28T15:16:45.476Z,55.80
2019-05-28T15:21:49.822Z,56.10
2019-05-28T15:26:53.920Z,56.40
2019-05-28T15:31:58.211Z,55.70
2019-05-28T15:37:02.625Z,56.10
2019-05-28T15:42:07.523Z,54.80
2019-05-28T15:47:11.900Z,55.00
2019-05-28T15:52:16.432Z,55.20
2019-05-28T15:57:20.778Z,55.00
2019-05-28T16:02:24.747Z,55.40
2019-05-28T16:07:29.078Z,54.90
2019-05-28T16:12:32.974Z,55.20
2019-05-28T16:17:36.914Z,55.30
2019-05-28T16:22:41.273Z,55.10
2019-05-28T16:27:45.419Z,55.30
2019-05-28T16:32:49.442Z,55.30
2019-05-28T16:37:53.959Z,55.50
2019-05-28T16:42:57.964Z,55.70
2019-05-28T16:48:02.155Z,55.80
2019-05-28T16:53:06.737Z,55.90
2019-05-28T16:58:10.700Z,56.40
2019-05-28T17:03:15.229Z,56.10
2019-05-28T17:08:19.163Z,56.40
2019-05-28T17:13:23.473Z,56.40
2019-05-28T17:18:27.650Z,56.30
2019-05-28T17:23:31.949Z,56.60
2019-05-28T17:28:36.481Z,56.70
2019-05-28T17:33:40.602Z,56.60
2019-05-28T17:38:44.850Z,56.80
2019-05-28T17:43:48.778Z,56.90
2019-05-28T17:48:53.505Z,57.20
2019-05-28T17:53:57.794Z,57.20
2019-05-28T17:59:01.755Z,57.30
2019-05-28T18:04:06.118Z,57.40
2019-05-28T18:09:10.937Z,57.30
2019-05-28T18:14:14.960Z,57.70
2019-05-28T18:19:19.331Z,57.50
2019-05-28T18:24:23.558Z,57.40
2019-05-28T18:29:27.883Z,57.10
2019-05-28T18:34:32.746Z,57.40
2019-05-28T18:39:36.638Z,57.50
2019-05-28T18:44:40.799Z,57.60
2019-05-28T18:49:45.032Z,57.70
2019-05-28T18:54:49.207Z,57.30
2019-05-28T18:59:53.898Z,57.50
2019-05-28T19:04:57.926Z,57.60
2019-05-28T19:10:01.866Z,57.40
2019-05-28T19:15:07.018Z,57.10
2019-05-28T19:20:11.568Z,57.50
2019-05-28T19:25:16.714Z,57.20
2019-05-28T19:30:32.764Z,57.10
2019-05-28T19:35:36.807Z,57.20
2019-05-28T19:40:44.213Z,57.30
2019-05-28T19:45:48.151Z,57.50
2019-05-28T19:50:52.370Z,57.20
2019-05-28T19:55:56.290Z,57.20
2019-05-28T20:01:00.583Z,57.20
2019-05-28T20:06:12.549Z,57.10
2019-05-28T20:11:16.747Z,56.70
2019-05-28T20:16:21.187Z,57.10
2019-05-28T20:21:25.206Z,57.30
2019-05-28T20:26:29.229Z,57.20
2019-05-28T20:31:33.460Z,57.40
2019-05-28T20:36:37.733Z,57.40
2019-05-28T20:41:41.742Z,57.40
2019-05-28T20:46:45.969Z,57.40
2019-05-28T20:51:52.128Z,57.10
2019-05-28T20:56:56.698Z,57.10
2019-05-28T21:02:01.515Z,57.20
2019-05-28T21:07:05.521Z,57.10
2019-05-28T21:12:09.683Z,57.30
2019-05-28T21:17:14.378Z,56.80
2019-05-28T21:22:26.601Z,57.10
2019-05-28T21:27:24.738Z,56.80
2019-05-28T21:32:28.698Z,56.70
2019-05-28T21:37:33.077Z,56.90
2019-05-28T21:42:37.440Z,56.80
2019-05-28T21:47:41.318Z,57.00
2019-05-28T21:52:45.908Z,56.70
2019-05-28T21:57:50.098Z,56.70
2019-05-28T22:02:54.556Z,56.70
2019-05-28T22:07:59.406Z,56.60
2019-05-28T22:13:18.207Z,56.50
2019-05-28T22:18:10.167Z,56.60
2019-05-28T22:23:14.111Z,56.50
2019-05-28T22:28:18.931Z,56.60
2019-05-28T22:33:22.956Z,56.70
2019-05-28T22:38:27.373Z,56.50
2019-05-28T22:43:32.078Z,56.60
2019-05-28T22:48:36.187Z,56.50
2019-05-28T22:53:40.521Z,56.40
2019-05-28T22:58:44.419Z,56.60
2019-05-28T23:03:48.392Z,56.40
2019-05-28T23:08:52.339Z,56.40
2019-05-28T23:13:57.125Z,56.40
2019-05-28T23:19:02.393Z,56.20
2019-05-28T23:24:07.433Z,56.00
2019-05-28T23:29:12.186Z,56.30
2019-05-28T23:34:16.062Z,56.00
2019-05-28T23:39:20.695Z,56.20
2019-05-28T23:44:24.770Z,55.80
2019-05-28T23:49:28.672Z,55.80
2019-05-28T23:54:32.670Z,55.90
2019-05-28T23:59:36.659Z,55.60
